createdAt,value
2017-08-26T00:02:23.780Z,18.40
2017-08-26T00:04:52.076Z,18.40
2017-08-26T00:07:20.352Z,18.40
2017-08-26T00:09:48.672Z,18.30
2017-08-26T00:12:16.935Z,18.50
2017-08-26T00:14:45.219Z,18.50
2017-08-26T00:17:13.515Z,18.50
2017-08-26T00:19:41.784Z,18.50
2017-08-26T00:22:10.860Z,18.50
2017-08-26T00:24:39.136Z,18.40
2017-08-26T00:27:07.404Z,18.50
2017-08-26T00:29:35.688Z,18.40
2017-08-26T00:32:03.964Z,18.40
2017-08-26T00:34:32.479Z,18.40
2017-08-26T00:37:00.756Z,18.40
2017-08-26T00:39:29.792Z,18.40
2017-08-26T00:41:58.067Z,18.40
2017-08-26T00:44:26.349Z,18.40
2017-08-26T00:46:54.660Z,18.40
2017-08-26T00:49:22.924Z,18.40
2017-08-26T00:51:51.198Z,18.50
2017-08-26T00:54:19.480Z,18.40
2017-08-26T00:56:47.767Z,18.40
2017-08-26T00:59:16.068Z,18.50
2017-08-26T01:01:44.344Z,18.40
2017-08-26T01:04:12.610Z,18.30
2017-08-26T01:06:40.896Z,18.40
2017-08-26T01:09:09.932Z,18.50
2017-08-26T01:11:38.324Z,18.50
2017-08-26T01:14:06.600Z,18.50
2017-08-26T01:16:35.652Z,18.30
2017-08-26T01:19:04.056Z,18.30
2017-08-26T01:21:32.328Z,18.30
2017-08-26T01:24:00.764Z,18.30
2017-08-26T01:26:29.026Z,18.30
2017-08-26T01:28:57.315Z,18.20
2017-08-26T01:31:26.359Z,18.40
2017-08-26T01:33:54.628Z,18.30
2017-08-26T01:36:22.931Z,18.30
2017-08-26T01:38:51.204Z,18.30
2017-08-26T03:03:17.508Z,18.20
2017-08-26T03:05:45.783Z,17.60
2017-08-26T03:08:14.044Z,17.60
2017-08-26T03:10:42.476Z,17.60
2017-08-26T03:13:10.750Z,17.70
2017-08-26T03:15:39.064Z,17.70
2017-08-26T03:18:07.339Z,17.60
2017-08-26T03:20:35.609Z,17.60
2017-08-26T03:23:03.895Z,17.50
2017-08-26T03:25:32.168Z,17.50
2017-08-26T03:28:00.483Z,17.50
2017-08-26T03:30:28.749Z,17.60
2017-08-26T03:32:57.011Z,17.70
2017-08-26T03:35:25.303Z,17.80
2017-08-26T03:37:53.571Z,17.80
2017-08-26T03:40:21.868Z,17.70
2017-08-26T03:42:50.140Z,17.70
2017-08-26T03:45:18.404Z,17.60
2017-08-26T03:47:46.691Z,17.60
2017-08-26T03:50:14.956Z,17.60
2017-08-26T03:52:43.438Z,17.60
2017-08-26T03:55:11.715Z,17.60
2017-08-26T03:57:40.752Z,17.50
2017-08-26T04:00:09.171Z,17.40
2017-08-26T04:02:37.431Z,17.50
2017-08-26T04:05:05.747Z,17.60
2017-08-26T04:07:34.017Z,17.60
2017-08-26T04:10:02.286Z,17.60
2017-08-26T04:12:30.581Z,17.50
2017-08-26T04:14:58.846Z,17.50
2017-08-26T04:17:27.276Z,17.40
2017-08-26T04:19:55.544Z,17.40
2017-08-26T04:22:23.823Z,17.40
2017-08-26T04:24:52.871Z,17.30
2017-08-26T04:27:21.127Z,17.20
2017-08-26T04:29:49.447Z,17.20
2017-08-26T04:32:17.716Z,17.20
2017-08-26T04:34:45.984Z,17.10
2017-08-26T04:37:14.259Z,17.10
2017-08-26T04:39:42.528Z,17.10
2017-08-26T04:42:10.940Z,17.10
2017-08-26T04:44:39.208Z,17.10
2017-08-26T04:47:07.472Z,17.10
2017-08-26T04:49:35.768Z,17.00
2017-08-26T04:52:04.052Z,17.10
2017-08-26T04:54:32.364Z,17.10
2017-08-26T04:57:00.639Z,17.10
2017-08-26T04:59:28.903Z,17.10
2017-08-26T05:01:57.187Z,17.20
2017-08-26T05:04:25.455Z,17.20
2017-08-26T05:06:53.751Z,17.20
2017-08-26T05:09:22.015Z,17.20
2017-08-26T05:11:50.289Z,17.30
2017-08-26T05:14:18.579Z,17.30
2017-08-26T05:16:47.223Z,17.30
2017-08-26T05:19:15.541Z,17.40
2017-08-26T05:21:43.808Z,17.40
2017-08-26T05:24:12.840Z,17.50
2017-08-26T05:26:41.124Z,17.40
2017-08-26T05:29:09.396Z,17.50
2017-08-26T05:31:37.709Z,17.50
2017-08-26T05:34:06.352Z,17.40
2017-08-26T05:36:34.625Z,17.40
2017-08-26T05:39:02.915Z,17.50
2017-08-26T05:41:31.379Z,17.50
2017-08-26T05:43:59.699Z,17.60
2017-08-26T05:46:27.968Z,17.70
2017-08-26T05:48:57.003Z,18.00
2017-08-26T05:51:25.283Z,17.90
2017-08-26T05:53:53.557Z,18.00
2017-08-26T05:56:22.636Z,18.20
2017-08-26T05:58:50.909Z,18.20
2017-08-26T06:01:19.184Z,18.40
2017-08-26T06:03:47.846Z,18.50
2017-08-26T06:06:16.124Z,18.60
2017-08-26T06:08:44.443Z,18.60
2017-08-26T06:11:12.711Z,18.60
2017-08-26T06:13:40.975Z,18.70
2017-08-26T06:16:09.256Z,18.90
2017-08-26T06:18:37.532Z,19.00
2017-08-26T06:21:05.820Z,19.00
2017-08-26T06:23:34.089Z,19.00
2017-08-26T06:26:02.364Z,19.20
2017-08-26T06:28:30.660Z,19.30
2017-08-26T06:30:59.699Z,19.40
2017-08-26T06:33:28.024Z,19.40
2017-08-26T06:35:56.292Z,19.50
2017-08-26T06:38:24.559Z,19.50
2017-08-26T06:40:52.839Z,19.60
2017-08-26T06:43:21.108Z,19.70
2017-08-26T06:45:49.409Z,19.80
2017-08-26T06:48:18.964Z,20.10
2017-08-26T06:50:47.211Z,20.00
2017-08-26T06:53:15.509Z,20.20
2017-08-26T06:55:43.804Z,20.30
2017-08-26T06:58:12.273Z,20.40
2017-08-26T07:00:40.548Z,20.40
2017-08-26T07:03:08.808Z,20.50
2017-08-26T07:05:37.100Z,20.60
2017-08-26T07:08:05.368Z,20.60
2017-08-26T07:10:33.656Z,20.70
2017-08-26T07:13:01.936Z,20.70
2017-08-26T07:15:30.252Z,20.80
2017-08-26T07:17:58.516Z,20.80
2017-08-26T07:20:26.820Z,20.80
2017-08-26T07:22:55.117Z,20.90
2017-08-26T07:25:23.423Z,20.90
2017-08-26T07:27:51.873Z,21.10
2017-08-26T07:30:20.910Z,21.30
2017-08-26T07:32:49.208Z,21.20
2017-08-26T07:35:17.607Z,21.30
2017-08-26T07:37:45.888Z,21.40
2017-08-26T07:40:14.221Z,21.50
2017-08-26T07:42:42.616Z,21.60
2017-08-26T07:45:10.882Z,21.70
2017-08-26T07:47:39.180Z,21.70
2017-08-26T07:50:07.456Z,21.90
2017-08-26T07:52:36.519Z,22.10
2017-08-26T07:55:04.800Z,22.10
2017-08-26T07:57:33.073Z,22.30
2017-08-26T08:00:02.437Z,22.30
2017-08-26T08:02:31.476Z,22.50
2017-08-26T08:04:59.788Z,22.50
2017-08-26T08:07:28.064Z,22.50
2017-08-26T08:09:56.355Z,22.60
2017-08-26T08:12:24.640Z,22.70
2017-08-26T08:14:53.035Z,22.80
2017-08-26T08:17:21.352Z,22.90
2017-08-26T08:19:49.652Z,23.00
2017-08-26T08:22:17.912Z,23.10
2017-08-26T08:24:46.981Z,23.40
2017-08-26T08:27:16.015Z,23.50
2017-08-26T08:29:44.348Z,23.50
2017-08-26T08:32:12.624Z,23.50
2017-08-26T08:34:40.901Z,23.60
2017-08-26T08:37:09.193Z,23.70
2017-08-26T08:39:37.467Z,23.80
2017-08-26T08:42:06.274Z,23.90
2017-08-26T08:44:34.532Z,24.00
2017-08-26T08:47:02.812Z,24.00
2017-08-26T08:49:31.102Z,24.10
2017-08-26T08:51:59.390Z,24.10
2017-08-26T08:54:28.475Z,24.30
2017-08-26T08:56:56.785Z,24.30
2017-08-26T08:59:25.069Z,24.40
2017-08-26T09:01:53.374Z,24.40
2017-08-26T09:04:22.136Z,24.50
2017-08-26T09:06:51.200Z,24.70
2017-08-26T09:09:20.245Z,24.90
2017-08-26T09:11:48.543Z,24.80
2017-08-26T09:14:16.833Z,25.00
2017-08-26T09:16:45.860Z,25.00
2017-08-26T09:19:14.153Z,24.90
2017-08-26T09:21:42.424Z,25.00
2017-08-26T09:24:10.823Z,25.10
2017-08-26T09:26:39.185Z,25.20
2017-08-26T09:29:07.452Z,25.40
2017-08-26T09:31:35.749Z,25.50
2017-08-26T09:34:04.016Z,25.60
2017-08-26T09:36:33.310Z,25.60
2017-08-26T09:39:01.596Z,25.50
2017-08-26T09:41:29.868Z,25.90
2017-08-26T09:43:58.159Z,26.10
2017-08-26T09:46:26.431Z,26.30
2017-08-26T09:48:54.916Z,26.50
2017-08-26T09:51:23.959Z,26.70
2017-08-26T09:53:52.219Z,26.60
2017-08-26T09:56:20.504Z,26.80
2017-08-26T09:58:48.772Z,26.90
2017-08-26T10:01:18.663Z,26.90
2017-08-26T10:03:46.932Z,26.80
2017-08-26T10:06:15.208Z,27.10
2017-08-26T10:08:44.263Z,26.80
2017-08-26T10:11:12.542Z,26.70
2017-08-26T10:13:41.612Z,26.90
2017-08-26T10:16:09.877Z,26.90
2017-08-26T10:18:38.149Z,27.00
2017-08-26T10:21:06.440Z,27.10
2017-08-26T10:23:34.716Z,27.30
2017-08-26T10:26:03.036Z,27.40
2017-08-26T10:28:32.073Z,27.90
2017-08-26T10:31:00.372Z,27.90
2017-08-26T10:33:29.428Z,28.00
2017-08-26T10:35:57.936Z,28.00
2017-08-26T10:38:26.247Z,28.10
2017-08-26T10:40:54.512Z,28.20
2017-08-26T10:43:22.804Z,28.20
2017-08-26T10:45:51.084Z,28.40
2017-08-26T10:48:19.360Z,28.50
2017-08-26T10:50:47.790Z,28.40
2017-08-26T10:53:16.065Z,28.50
2017-08-26T10:55:45.106Z,28.30
2017-08-26T10:58:13.388Z,28.20
2017-08-26T11:00:42.415Z,28.70
2017-08-26T11:03:10.725Z,28.70
2017-08-26T11:05:38.996Z,28.90
2017-08-26T11:08:08.032Z,29.20
2017-08-26T11:10:36.320Z,29.10
2017-08-26T11:13:04.596Z,29.30
2017-08-26T11:15:33.676Z,29.30
2017-08-26T11:18:02.712Z,29.10
2017-08-26T11:20:30.967Z,29.10
2017-08-26T11:22:59.416Z,29.10
2017-08-26T11:25:27.691Z,29.30
2017-08-26T11:27:56.024Z,29.40
2017-08-26T11:30:24.291Z,29.30
2017-08-26T11:32:52.587Z,29.30
2017-08-26T11:35:20.867Z,29.50
2017-08-26T11:37:49.895Z,29.50
2017-08-26T11:40:18.435Z,29.70
2017-08-26T11:42:46.691Z,29.60
2017-08-26T11:45:15.044Z,29.70
2017-08-26T11:47:43.339Z,29.90
2017-08-26T11:50:11.603Z,29.90
2017-08-26T11:52:39.913Z,29.90
2017-08-26T11:55:08.172Z,29.70
2017-08-26T11:57:36.444Z,30.10
2017-08-26T12:00:04.728Z,30.50
2017-08-26T12:02:33.768Z,30.70
2017-08-26T12:05:02.090Z,30.70
2017-08-26T12:07:30.364Z,30.60
2017-08-26T12:09:58.637Z,30.60
2017-08-26T12:15:01.680Z,30.50
2017-08-26T12:17:29.987Z,30.70
2017-08-26T12:19:58.264Z,31.00
2017-08-26T12:22:26.540Z,31.20
2017-08-26T12:24:54.836Z,31.40
2017-08-26T12:27:23.091Z,31.50
2017-08-26T12:29:51.399Z,31.60
2017-08-26T12:32:19.672Z,31.60
2017-08-26T12:34:47.949Z,31.50
2017-08-26T12:37:16.236Z,31.60
2017-08-26T12:39:44.577Z,31.60
2017-08-26T12:42:12.908Z,31.70
2017-08-26T12:44:41.180Z,31.90
2017-08-26T12:47:09.448Z,32.20
2017-08-26T12:49:37.733Z,31.90
2017-08-26T12:52:06.763Z,32.40
2017-08-26T12:54:35.075Z,32.30
2017-08-26T12:57:04.111Z,32.20
2017-08-26T12:59:32.375Z,32.20
2017-08-26T13:02:00.664Z,32.10
2017-08-26T13:04:28.942Z,32.30
2017-08-26T13:06:57.243Z,32.60
2017-08-26T13:09:25.517Z,32.40
2017-08-26T13:11:53.962Z,32.60
2017-08-26T13:14:22.248Z,32.70
2017-08-26T13:16:50.525Z,32.80
2017-08-26T13:19:18.836Z,33.00
2017-08-26T13:21:47.107Z,33.00
2017-08-26T13:24:15.376Z,33.20
2017-08-26T13:26:43.668Z,33.40
2017-08-26T13:29:11.941Z,33.10
2017-08-26T13:31:40.248Z,33.10
2017-08-26T13:34:08.516Z,33.40
2017-08-26T13:36:36.792Z,33.40
2017-08-26T13:39:05.082Z,33.80
2017-08-26T13:41:33.348Z,34.10
2017-08-26T13:44:01.809Z,34.00
2017-08-26T13:46:30.085Z,33.50
2017-08-26T13:48:59.107Z,32.00
2017-08-26T13:51:27.405Z,31.90
2017-08-26T13:53:55.698Z,31.60
2017-08-26T13:56:24.015Z,31.60
2017-08-26T13:58:52.283Z,31.70
2017-08-26T14:01:20.567Z,31.50
2017-08-26T14:03:48.906Z,31.50
2017-08-26T14:06:17.164Z,31.10
2017-08-26T14:08:45.480Z,31.20
2017-08-26T14:11:13.747Z,31.50
2017-08-26T14:13:42.023Z,31.90
2017-08-26T14:16:10.324Z,31.90
2017-08-26T14:18:38.588Z,32.00
2017-08-26T14:21:07.985Z,32.80
2017-08-26T14:23:36.344Z,32.70
2017-08-26T14:26:04.608Z,33.20
2017-08-26T14:28:32.890Z,33.50
2017-08-26T14:31:01.184Z,33.60
2017-08-26T14:33:29.498Z,33.40
2017-08-26T14:35:57.777Z,33.50
2017-08-26T14:38:26.047Z,33.70
2017-08-26T14:40:54.352Z,33.70
2017-08-26T14:43:22.631Z,33.70
2017-08-26T14:45:50.934Z,33.50
2017-08-26T14:48:19.200Z,33.30
2017-08-26T14:50:47.467Z,33.50
2017-08-26T14:53:15.760Z,33.40
2017-08-26T14:55:44.024Z,33.50
2017-08-26T14:58:12.355Z,33.50
2017-08-26T15:00:40.632Z,33.60
2017-08-26T15:03:08.891Z,33.60
2017-08-26T15:05:37.171Z,33.70
2017-08-26T15:08:05.439Z,33.90
2017-08-26T15:10:33.922Z,33.80
2017-08-26T15:13:02.969Z,33.30
2017-08-26T15:15:31.244Z,33.30
2017-08-26T15:17:59.541Z,33.20
2017-08-26T15:20:27.824Z,33.30
2017-08-26T15:22:56.115Z,33.30
2017-08-26T15:25:24.387Z,33.10
2017-08-26T15:27:52.655Z,33.00
2017-08-26T15:30:20.948Z,32.90
2017-08-26T15:32:49.285Z,32.80
2017-08-26T15:35:17.612Z,32.70
2017-08-26T15:37:45.877Z,32.60
2017-08-26T15:40:14.156Z,32.40
2017-08-26T15:42:42.436Z,32.20
2017-08-26T15:45:11.468Z,32.00
2017-08-26T15:47:39.959Z,32.00
2017-08-26T15:50:09.104Z,31.70
2017-08-26T15:52:37.377Z,31.60
2017-08-26T15:55:05.709Z,31.50
2017-08-26T15:57:33.982Z,31.30
2017-08-26T16:00:02.338Z,31.30
2017-08-26T16:02:30.612Z,31.10
2017-08-26T16:04:58.884Z,30.90
2017-08-26T16:07:27.920Z,30.70
2017-08-26T16:09:56.187Z,30.80
2017-08-26T16:12:24.471Z,30.60
2017-08-26T16:14:52.737Z,30.40
2017-08-26T16:17:21.000Z,30.30
2017-08-26T16:19:49.300Z,30.10
2017-08-26T16:22:17.573Z,30.00
2017-08-26T16:24:45.895Z,30.00
2017-08-26T16:27:14.159Z,29.90
2017-08-26T16:29:42.436Z,29.90
2017-08-26T16:32:10.719Z,29.90
2017-08-26T16:34:38.987Z,29.80
2017-08-26T16:37:07.395Z,29.80
2017-08-26T16:39:35.918Z,29.70
2017-08-26T16:42:04.965Z,29.50
2017-08-26T16:44:33.243Z,29.40
2017-08-26T16:47:01.525Z,29.40
2017-08-26T16:49:30.704Z,29.30
2017-08-26T16:51:59.745Z,29.20
2017-08-26T16:54:28.015Z,29.20
2017-08-26T16:56:56.311Z,29.10
2017-08-26T16:59:24.584Z,29.00
2017-08-26T17:01:53.228Z,29.00
2017-08-26T17:04:21.520Z,28.80
2017-08-26T17:06:49.776Z,28.80
2017-08-26T17:09:18.086Z,28.80
2017-08-26T17:11:46.347Z,28.80
2017-08-26T17:14:14.647Z,28.70
2017-08-26T17:16:42.924Z,28.70
2017-08-26T17:19:11.464Z,28.60
2017-08-26T17:21:39.767Z,28.60
2017-08-26T17:24:08.060Z,28.50
2017-08-26T17:26:36.344Z,28.40
2017-08-26T17:29:04.628Z,28.30
2017-08-26T17:31:32.896Z,28.30
2017-08-26T17:34:01.970Z,28.20
2017-08-26T17:36:30.245Z,28.20
2017-08-26T17:38:58.540Z,28.10
2017-08-26T17:41:26.871Z,28.00
2017-08-26T17:43:55.119Z,27.90
2017-08-26T17:46:23.403Z,27.90
2017-08-26T17:48:51.700Z,27.80
2017-08-26T17:51:20.016Z,27.70
2017-08-26T17:53:48.285Z,27.70
2017-08-26T17:56:16.571Z,27.60
2017-08-26T17:58:44.848Z,27.50
2017-08-26T18:01:13.148Z,27.50
2017-08-26T18:03:41.436Z,27.40
2017-08-26T18:06:09.728Z,27.30
2017-08-26T18:08:38.008Z,27.20
2017-08-26T18:13:41.000Z,27.10
2017-08-26T18:16:09.439Z,27.00
2017-08-26T18:18:37.700Z,27.00
2017-08-26T18:21:05.977Z,27.00
2017-08-26T18:23:34.272Z,26.90
2017-08-26T18:26:02.528Z,26.80
2017-08-26T18:28:31.081Z,26.70
2017-08-26T18:30:59.375Z,26.60
2017-08-26T18:33:27.671Z,26.50
2017-08-26T18:35:55.955Z,26.40
2017-08-26T18:38:24.224Z,26.30
2017-08-26T18:40:52.569Z,26.20
2017-08-26T18:43:21.599Z,26.00
2017-08-26T18:45:49.875Z,26.00
2017-08-26T18:48:18.273Z,26.00
2017-08-26T18:50:47.304Z,25.80
2017-08-26T18:53:15.613Z,25.80
2017-08-26T18:55:44.647Z,25.70
2017-08-26T18:58:12.924Z,25.60
2017-08-26T19:00:41.211Z,25.60
2017-08-26T19:03:10.249Z,25.50
2017-08-26T19:05:38.539Z,25.40
2017-08-26T19:08:06.816Z,25.40
2017-08-26T19:10:35.863Z,25.20
2017-08-26T19:13:04.147Z,25.10
2017-08-26T19:15:32.428Z,25.10
2017-08-26T19:18:01.504Z,24.80
2017-08-26T19:20:29.755Z,24.80
2017-08-26T19:22:58.791Z,24.60
2017-08-26T19:25:27.096Z,24.60
2017-08-26T19:27:55.366Z,24.60
2017-08-26T19:30:23.667Z,24.60
2017-08-26T19:32:51.995Z,24.60
2017-08-26T19:35:21.029Z,24.30
2017-08-26T19:37:49.328Z,24.30
2017-08-26T19:40:18.383Z,24.10
2017-08-26T19:42:46.675Z,24.00
2017-08-26T19:45:14.976Z,24.20
2017-08-26T19:47:43.289Z,24.10
2017-08-26T19:50:12.370Z,23.80
2017-08-26T19:52:40.628Z,23.80
2017-08-26T19:55:09.692Z,23.90
2017-08-26T19:57:38.158Z,23.80
2017-08-26T20:00:06.570Z,23.90
2017-08-26T20:02:34.851Z,23.80
2017-08-26T20:05:03.164Z,23.60
2017-08-26T20:07:32.363Z,23.50
2017-08-26T20:10:01.404Z,23.50
2017-08-26T20:12:30.164Z,23.40
2017-08-26T20:14:58.426Z,23.40
2017-08-26T20:17:26.707Z,23.30
2017-08-26T20:19:55.072Z,23.30
2017-08-26T20:22:23.351Z,23.20
2017-08-26T20:24:51.643Z,23.10
2017-08-26T20:27:19.928Z,23.00
2017-08-26T20:29:48.219Z,22.90
2017-08-26T20:32:17.267Z,22.90
2017-08-26T20:34:46.349Z,22.90
2017-08-26T20:37:14.615Z,22.80
2017-08-26T20:39:42.896Z,22.90
2017-08-26T20:42:11.191Z,22.70
2017-08-26T20:44:39.475Z,22.70
2017-08-26T20:47:07.779Z,22.60
2017-08-26T20:49:36.063Z,22.60
2017-08-26T20:54:39.080Z,22.40
2017-08-26T20:57:07.432Z,22.30
2017-08-26T20:59:35.713Z,22.20
2017-08-26T21:02:04.812Z,22.20
2017-08-26T21:04:33.100Z,22.10
2017-08-26T21:07:02.153Z,22.10
2017-08-26T21:09:30.459Z,22.10
2017-08-26T21:11:58.733Z,22.10
2017-08-26T21:14:27.024Z,22.10
2017-08-26T21:16:55.296Z,22.00
2017-08-26T21:19:23.604Z,21.90
2017-08-26T21:21:51.880Z,21.90
2017-08-26T21:24:20.164Z,21.90
2017-08-26T21:26:48.455Z,21.90
2017-08-26T21:29:16.735Z,21.90
2017-08-26T21:31:45.032Z,21.90
2017-08-26T21:34:13.315Z,21.90
2017-08-26T21:36:41.604Z,21.80
2017-08-26T21:39:09.883Z,21.60
2017-08-26T21:41:38.962Z,21.50
2017-08-26T21:44:08.004Z,21.40
2017-08-26T21:46:36.288Z,21.40
2017-08-26T21:49:05.348Z,21.40
2017-08-26T21:51:33.621Z,21.40
2017-08-26T21:54:01.928Z,21.40
2017-08-26T21:56:30.240Z,21.40
2017-08-26T21:58:58.515Z,21.30
2017-08-26T22:01:27.591Z,21.20
2017-08-26T22:03:55.877Z,21.20
2017-08-26T22:06:24.151Z,21.20
2017-08-26T22:08:52.459Z,21.10
2017-08-26T22:11:21.021Z,21.00
2017-08-26T22:13:49.291Z,20.90
2017-08-26T22:16:17.608Z,20.80
2017-08-26T22:18:45.883Z,20.80
2017-08-26T22:21:14.396Z,20.80
2017-08-26T22:23:44.175Z,20.90
2017-08-26T22:26:12.477Z,20.90
2017-08-26T22:28:40.780Z,20.90
2017-08-26T22:31:09.048Z,20.80
2017-08-26T22:33:37.370Z,20.80
2017-08-26T22:36:05.635Z,20.90
2017-08-26T22:38:33.918Z,20.90
2017-08-26T22:41:02.212Z,20.80
2017-08-26T22:43:30.496Z,20.70
2017-08-26T22:45:59.571Z,20.50
2017-08-26T22:48:28.636Z,20.50
2017-08-26T22:50:56.912Z,20.40
2017-08-26T22:53:25.375Z,20.40
2017-08-26T22:55:53.647Z,20.30
2017-08-26T22:58:22.736Z,20.10
2017-08-26T23:00:51.012Z,20.00
2017-08-26T23:03:19.299Z,20.00
2017-08-26T23:05:48.569Z,20.20
2017-08-26T23:08:16.917Z,20.20
2017-08-26T23:10:45.215Z,20.20
2017-08-26T23:13:13.491Z,20.30
2017-08-26T23:15:41.813Z,20.10
2017-08-26T23:18:10.096Z,20.10
2017-08-26T23:20:38.393Z,20.00
2017-08-26T23:23:06.680Z,20.00
2017-08-26T23:25:34.956Z,20.00
2017-08-26T23:28:03.380Z,20.10
2017-08-26T23:30:32.450Z,19.80
2017-08-26T23:33:00.715Z,19.80
2017-08-26T23:35:29.017Z,19.80
2017-08-26T23:37:57.305Z,19.70
2017-08-26T23:40:25.606Z,19.70
2017-08-26T23:42:53.879Z,19.70
2017-08-26T23:45:22.952Z,19.70
2017-08-26T23:47:51.244Z,19.60
2017-08-26T23:50:20.313Z,19.50
2017-08-26T23:52:48.600Z,19.50
2017-08-26T23:55:16.900Z,19.50
2017-08-26T23:57:45.180Z,19.60
